Time;durP1;ratioP1;P1;durP2;ratioP2;P2;SDS_P1;SDS_P2;PMS_P1;PMS_P2;Temp;Humidity;BMP_temperature;BMP_pressure;BME280_temperature;BME280_humidity;BME280_pressure;Samples;Min_cycle;Max_cycle;Signal;HPM_P1;HPM_P2
2022/09/02 00:01:41;;;;;;;0.98;0.20;;;21.70;50.30;;;;;;5072981;28;20480;-79
2022/09/02 00:04:16;;;;;;;1.27;0.20;;;21.60;50.10;;;;;;5072781;28;20072;-79
2022/09/02 00:06:43;;;;;;;3.42;0.10;;;21.40;50.60;;;;;;5072693;28;20037;-79
2022/09/02 00:09:12;;;;;;;0.40;0.13;;;21.40;51.30;;;;;;5072877;28;20137;-79
2022/09/02 00:11:39;;;;;;;0.63;0.20;;;21.50;51.50;;;;;;5073234;28;20376;-79
2022/09/02 00:14:09;;;;;;;0.40;0.10;;;21.70;51.40;;;;;;5072871;28;20044;-79
2022/09/02 00:16:36;;;;;;;0.73;0.10;;;21.70;51.50;;;;;;5072868;28;20020;-79
2022/09/02 00:19:03;;;;;;;2.42;0.10;;;21.80;51.10;;;;;;5072965;28;20055;-79
2022/09/02 00:21:33;;;;;;;1.83;0.20;;;21.90;51.20;;;;;;5072840;28;20029;-79
2022/09/02 00:24:02;;;;;;;3.10;0.40;;;21.90;50.60;;;;;;5072879;28;20043;-79
2022/09/02 00:26:28;;;;;;;2.88;0.20;;;21.90;50.60;;;;;;5076040;28;20049;-80
2022/09/02 00:28:53;;;;;;;2.10;0.20;;;21.90;50.70;;;;;;5076459;28;20463;-79
2022/09/02 00:31:19;;;;;;;0.50;0.10;;;21.90;50.40;;;;;;5076478;28;20031;-79
2022/09/02 00:33:45;;;;;;;1.40;0.20;;;21.80;50.30;;;;;;5076368;28;20070;-79
2022/09/02 00:36:11;;;;;;;1.17;0.22;;;21.80;50.30;;;;;;5076509;28;20028;-79
2022/09/02 00:38:38;;;;;;;1.30;0.17;;;21.60;50.40;;;;;;5076266;28;20062;-79
2022/09/02 00:41:07;;;;;;;2.00;0.20;;;21.60;50.70;;;;;;5076453;28;20044;-79
2022/09/02 00:43:50;;;;;;;0.75;0.17;;;21.50;50.30;;;;;;5076300;28;20044;-79
2022/09/02 00:46:20;;;;;;;0.28;0.08;;;21.50;50.80;;;;;;5076267;28;20035;-79
2022/09/02 00:49:09;;;;;;;0.50;0.15;;;21.50;51.30;;;;;;5076413;28;20047;-79
2022/09/02 00:52:02;;;;;;;1.98;0.10;;;21.50;51.70;;;;;;5075564;28;20029;-79
2022/09/02 00:54:30;;;;;;;0.70;0.10;;;21.50;50.50;;;;;;5075976;28;20052;-79
2022/09/02 00:56:57;;;;;;;0.50;0.10;;;21.20;51.60;;;;;;5075743;28;20570;-79
2022/09/02 00:59:36;;;;;;;1.30;0.10;;;21.20;51.80;;;;;;5076159;28;20032;-79
2022/09/02 01:02:02;;;;;;;1.50;0.10;;;21.30;51.80;;;;;;5076269;28;20075;-79
2022/09/02 01:04:28;;;;;;;0.88;0.10;;;21.40;51.60;;;;;;5075611;28;20426;-79
2022/09/02 01:06:53;;;;;;;1.35;0.10;;;21.50;51.90;;;;;;5075872;28;20522;-79
2022/09/02 01:09:20;;;;;;;1.98;0.20;;;21.40;51.20;;;;;;5076032;28;20029;-80
2022/09/02 01:11:53;;;;;;;1.70;0.10;;;21.30;51.10;;;;;;5075654;28;20021;-79
2022/09/02 01:14:20;;;;;;;1.65;0.10;;;21.20;51.60;;;;;;5075630;28;20031;-80
2022/09/02 01:16:53;;;;;;;0.60;0.10;;;21.20;51.50;;;;;;5075549;28;20029;-79
2022/09/02 01:19:24;;;;;;;1.67;0.30;;;21.20;51.60;;;;;;5075594;28;20090;-79
2022/09/02 01:21:52;;;;;;;0.88;0.10;;;21.20;51.50;;;;;;5075480;28;20051;-79
2022/09/02 01:24:19;;;;;;;0.57;0.10;;;21.20;51.40;;;;;;5075418;28;20024;-79
2022/09/02 01:26:45;;;;;;;0.98;0.10;;;21.10;51.40;;;;;;5075165;28;20554;-79
2022/09/02 01:29:11;;;;;;;1.52;0.10;;;20.80;51.50;;;;;;5075639;28;20077;-79
2022/09/02 01:31:37;;;;;;;1.15;0.10;;;20.60;51.80;;;;;;5075324;28;20036;-79
2022/09/02 01:34:05;;;;;;;0.63;0.10;;;20.60;52.30;;;;;;5075294;28;20021;-79
2022/09/02 01:36:31;;;;;;;1.75;0.10;;;20.50;52.30;;;;;;5074818;28;20032;-79
2022/09/02 01:38:57;;;;;;;1.08;0.10;;;20.50;52.30;;;;;;5075383;28;20032;-79
2022/09/02 01:41:23;;;;;;;0.98;0.10;;;20.50;52.50;;;;;;5075408;28;20025;-79
2022/09/02 01:43:48;;;;;;;1.92;0.10;;;20.50;52.30;;;;;;5075288;28;20038;-79
2022/09/02 01:46:14;;;;;;;0.57;0.10;;;20.50;52.30;;;;;;5075030;28;20100;-79
2022/09/02 01:48:40;;;;;;;0.50;0.20;;;20.60;52.60;;;;;;5074764;28;20479;-79
2022/09/02 01:51:06;;;;;;;0.80;0.03;;;20.60;52.50;;;;;;5074909;28;20020;-79
2022/09/02 01:53:32;;;;;;;2.15;0.10;;;20.50;52.20;;;;;;5075160;28;20104;-79
2022/09/02 01:55:59;;;;;;;0.52;0.10;;;20.60;52.30;;;;;;5075094;28;20025;-79
2022/09/02 01:58:24;;;;;;;2.47;0.20;;;20.60;53.20;;;;;;5074816;28;20383;-79
2022/09/02 02:00:50;;;;;;;2.97;0.20;;;20.40;52.50;;;;;;5074791;28;20019;-79
2022/09/02 02:03:16;;;;;;;0.98;0.13;;;20.40;52.60;;;;;;5074610;28;20104;-79
2022/09/02 02:05:42;;;;;;;1.25;0.20;;;20.40;52.70;;;;;;5074896;28;20137;-80
2022/09/02 02:08:07;;;;;;;1.35;0.20;;;20.40;52.60;;;;;;5074479;28;20040;-79
2022/09/02 02:10:33;;;;;;;0.93;0.20;;;20.30;52.40;;;;;;5074583;28;20021;-79
2022/09/02 02:13:00;;;;;;;4.18;0.30;;;20.30;53.00;;;;;;5074489;28;20059;-80
2022/09/02 02:15:26;;;;;;;1.90;0.10;;;20.40;52.90;;;;;;5074439;28;20451;-79
2022/09/02 02:17:52;;;;;;;0.98;0.10;;;20.40;52.30;;;;;;5074246;28;20055;-79
2022/09/02 02:20:20;;;;;;;0.98;0.10;;;20.30;52.50;;;;;;5074234;28;20509;-79
2022/09/02 02:22:46;;;;;;;1.70;0.22;;;20.30;52.90;;;;;;5074677;28;20025;-79
2022/09/02 02:25:14;;;;;;;0.95;0.17;;;20.30;52.90;;;;;;5073896;28;20045;-79
2022/09/02 02:27:40;;;;;;;1.83;0.20;;;20.30;53.00;;;;;;5074060;28;20029;-79
2022/09/02 02:30:08;;;;;;;0.73;0.22;;;20.10;53.00;;;;;;5074050;28;20082;-79
2022/09/02 02:32:34;;;;;;;1.77;0.10;;;20.00;53.20;;;;;;5074407;28;20535;-79
2022/09/02 02:35:00;;;;;;;0.82;0.10;;;19.90;53.70;;;;;;5074760;28;20379;-79
2022/09/02 02:37:26;;;;;;;0.68;0.10;;;20.00;53.40;;;;;;5073785;28;20029;-79
2022/09/02 02:39:51;;;;;;;1.10;0.20;;;20.00;53.40;;;;;;5074073;28;20031;-79
2022/09/02 02:42:17;;;;;;;0.88;0.15;;;20.10;53.20;;;;;;5073939;28;20035;-79
2022/09/02 02:44:43;;;;;;;0.73;0.10;;;20.10;53.50;;;;;;5073682;28;20052;-79
2022/09/02 02:47:09;;;;;;;1.40;0.20;;;20.10;53.50;;;;;;5073269;28;20463;-79
2022/09/02 02:49:40;;;;;;;1.15;0.20;;;20.20;53.10;;;;;;5073683;28;20025;-79
2022/09/02 02:52:06;;;;;;;3.17;0.13;;;20.10;53.30;;;;;;5073789;28;20108;-80
2022/09/02 02:54:32;;;;;;;2.10;0.10;;;20.10;53.30;;;;;;5073517;28;20032;-79
2022/09/02 02:56:58;;;;;;;0.70;0.10;;;20.10;52.90;;;;;;5073952;28;20028;-79
2022/09/02 02:59:25;;;;;;;0.55;0.10;;;20.10;53.40;;;;;;5073731;28;20084;-79
2022/09/02 03:01:50;;;;;;;0.28;0.10;;;20.10;53.40;;;;;;5073884;28;20055;-79
2022/09/02 03:04:16;;;;;;;0.90;0.20;;;20.10;53.40;;;;;;5073972;28;20044;-79
2022/09/02 03:06:42;;;;;;;0.75;0.15;;;20.00;53.20;;;;;;5073402;28;20544;-79
2022/09/02 03:09:07;;;;;;;2.40;0.20;;;20.00;53.90;;;;;;5073563;28;20483;-80
2022/09/02 03:11:33;;;;;;;2.42;0.10;;;20.10;53.60;;;;;;5073593;28;20111;-79
2022/09/02 03:13:59;;;;;;;0.38;0.10;;;20.20;53.30;;;;;;5073398;28;20017;-79
2022/09/02 03:16:25;;;;;;;1.60;0.10;;;20.00;53.30;;;;;;5073334;28;20028;-79
2022/09/02 03:18:51;;;;;;;1.90;0.10;;;20.00;53.60;;;;;;5073604;28;20028;-79
2022/09/02 03:21:17;;;;;;;2.08;0.20;;;19.90;53.70;;;;;;5073467;28;20021;-79
2022/09/02 03:23:44;;;;;;;1.65;0.10;;;19.90;53.70;;;;;;5073486;28;20048;-79
2022/09/02 03:26:20;;;;;;;1.23;0.20;;;19.70;53.60;;;;;;5073161;28;20048;-79
2022/09/02 03:28:47;;;;;;;0.95;0.10;;;19.80;54.60;;;;;;5072874;28;20028;-79
2022/09/02 03:31:17;;;;;;;0.65;0.15;;;19.80;54.10;;;;;;5073224;28;20041;-79
2022/09/02 03:33:43;;;;;;;1.67;0.22;;;19.80;53.70;;;;;;5073227;28;20028;-79
2022/09/02 03:36:17;;;;;;;2.78;0.20;;;19.70;53.80;;;;;;5073102;28;20078;-78
2022/09/02 03:38:43;;;;;;;0.20;0.10;;;19.70;54.80;;;;;;5073327;28;20437;-79
2022/09/02 03:41:09;;;;;;;2.70;0.10;;;19.80;54.40;;;;;;5073045;28;20060;-78
2022/09/02 03:43:34;;;;;;;0.68;0.10;;;19.80;54.20;;;;;;5073131;28;20016;-79
2022/09/02 03:46:00;;;;;;;4.07;0.30;;;19.80;53.90;;;;;;5073094;28;20032;-79
2022/09/02 03:48:26;;;;;;;2.70;0.20;;;19.80;53.90;;;;;;5073134;28;20472;-78
2022/09/02 03:50:51;;;;;;;2.25;0.20;;;19.80;53.80;;;;;;5073081;28;20017;-79
2022/09/02 03:53:17;;;;;;;2.15;0.13;;;19.80;53.90;;;;;;5073284;28;20055;-78
2022/09/02 03:55:43;;;;;;;2.30;0.10;;;19.70;54.30;;;;;;5072959;28;20100;-79
2022/09/02 03:58:08;;;;;;;1.15;0.10;;;19.70;54.30;;;;;;5073185;28;20023;-79
2022/09/02 04:00:34;;;;;;;0.93;0.10;;;19.80;54.30;;;;;;5077455;28;20465;-80
2022/09/02 04:03:00;;;;;;;2.67;0.17;;;19.70;54.00;;;;;;5076700;28;20480;-79
2022/09/02 04:05:26;;;;;;;2.80;0.20;;;19.60;54.10;;;;;;5076887;28;20052;-79
2022/09/02 04:07:52;;;;;;;2.83;0.13;;;19.50;54.70;;;;;;5076778;28;20121;-79
2022/09/02 04:10:20;;;;;;;1.60;0.10;;;19.60;55.00;;;;;;5076840;28;20036;-79
2022/09/02 04:12:46;;;;;;;3.08;0.10;;;19.50;54.70;;;;;;5076777;28;20047;-79
2022/09/02 04:15:12;;;;;;;3.95;0.20;;;19.50;55.40;;;;;;5076812;28;20471;-79
2022/09/02 04:17:40;;;;;;;1.23;0.45;;;19.60;54.90;;;;;;5076855;28;20020;-78
2022/09/02 04:20:08;;;;;;;0.55;0.10;;;19.60;55.00;;;;;;5076957;28;20028;-79
2022/09/02 04:22:34;;;;;;;1.33;0.20;;;19.70;55.00;;;;;;5076649;28;20032;-78
2022/09/02 04:24:59;;;;;;;0.60;0.20;;;19.70;54.60;;;;;;5076263;28;20475;-78
2022/09/02 04:27:25;;;;;;;0.85;0.20;;;19.70;54.70;;;;;;5076602;28;20036;-79
2022/09/02 04:29:51;;;;;;;0.85;0.20;;;19.70;54.40;;;;;;5076721;28;20027;-78
2022/09/02 04:32:17;;;;;;;0.50;0.10;;;19.80;54.10;;;;;;5076509;28;20111;-79
2022/09/02 04:34:42;;;;;;;2.97;0.20;;;19.60;54.30;;;;;;5076363;28;20094;-79
2022/09/02 04:37:08;;;;;;;2.15;0.10;;;19.60;54.60;;;;;;5076593;28;20329;-79
2022/09/02 04:39:33;;;;;;;2.53;0.10;;;19.60;54.80;;;;;;5075972;28;20017;-79
2022/09/02 04:41:59;;;;;;;2.47;0.20;;;19.70;55.10;;;;;;5076137;28;20024;-76
2022/09/02 04:44:24;;;;;;;2.90;0.20;;;19.70;54.60;;;;;;5076410;28;20032;-76
2022/09/02 04:46:51;;;;;;;3.03;0.20;;;19.60;54.60;;;;;;5076196;28;20036;-77
2022/09/02 04:49:17;;;;;;;3.08;0.10;;;19.60;54.50;;;;;;5075975;28;20475;-77
2022/09/02 04:51:43;;;;;;;1.25;0.10;;;19.60;54.60;;;;;;5075830;28;20031;-76
2022/09/02 04:54:08;;;;;;;1.52;0.20;;;19.50;54.70;;;;;;5075865;28;20017;-77
2022/09/02 04:56:34;;;;;;;2.65;0.10;;;19.40;55.30;;;;;;5076351;28;20032;-76
2022/09/02 04:59:00;;;;;;;0.40;0.10;;;19.30;55.90;;;;;;5076050;28;20025;-78
2022/09/02 05:01:30;;;;;;;1.13;0.10;;;19.40;56.00;;;;;;5075782;28;20028;-77
2022/09/02 05:03:56;;;;;;;1.77;0.32;;;19.50;56.10;;;;;;5075834;28;20078;-77
2022/09/02 05:06:27;;;;;;;0.98;0.20;;;19.60;55.70;;;;;;5075710;28;20036;-78
2022/09/02 05:08:54;;;;;;;0.75;0.10;;;19.70;55.30;;;;;;5075598;28;20060;-79
2022/09/02 05:11:22;;;;;;;2.67;0.43;;;19.70;55.50;;;;;;5074871;28;20029;-77
2022/09/02 05:13:52;;;;;;;0.88;0.30;;;19.70;55.30;;;;;;5075336;28;20472;-77
2022/09/02 05:16:21;;;;;;;1.17;0.20;;;19.80;55.00;;;;;;5075662;28;20029;-77
2022/09/02 05:18:47;;;;;;;2.60;0.20;;;19.80;55.20;;;;;;5075603;28;20120;-76
2022/09/02 05:21:13;;;;;;;0.80;0.20;;;19.70;54.70;;;;;;5075564;28;20028;-77
2022/09/02 05:23:39;;;;;;;1.70;0.15;;;19.70;54.90;;;;;;5075650;28;20073;-77
2022/09/02 05:26:07;;;;;;;1.10;0.10;;;19.70;55.20;;;;;;5074918;28;20063;-78
2022/09/02 05:28:33;;;;;;;1.00;0.20;;;19.70;55.50;;;;;;5075141;28;20373;-77
2022/09/02 05:31:07;;;;;;;0.80;0.20;;;19.60;55.20;;;;;;5075454;28;20104;-77
2022/09/02 05:33:37;;;;;;;3.10;0.25;;;19.60;55.60;;;;;;5075110;28;20028;-77
2022/09/02 05:36:03;;;;;;;1.48;0.17;;;19.50;55.20;;;;;;5075179;28;20020;-77
2022/09/02 05:38:30;;;;;;;0.73;0.30;;;19.40;55.70;;;;;;5075303;28;20034;-77
2022/09/02 05:40:56;;;;;;;0.70;0.20;;;19.50;55.60;;;;;;5075171;28;20112;-77
2022/09/02 05:43:22;;;;;;;0.90;0.20;;;19.50;55.50;;;;;;5074885;28;20519;-77
2022/09/02 05:45:48;;;;;;;1.75;0.63;;;19.50;55.50;;;;;;5074937;28;20025;-77
2022/09/02 05:50:58;;;;;;;1.55;0.17;;;19.50;55.40;;;;;;5074955;28;20483;-77
2022/09/02 05:53:25;;;;;;;4.25;0.20;;;19.50;55.70;;;;;;5074616;28;20100;-77
2022/09/02 05:55:51;;;;;;;1.20;0.20;;;19.60;55.80;;;;;;5074507;28;20021;-77
2022/09/02 05:58:17;;;;;;;3.22;0.20;;;19.60;55.50;;;;;;5074580;28;20456;-77
2022/09/02 06:00:43;;;;;;;2.10;0.20;;;19.60;55.40;;;;;;5074458;28;20108;-77
2022/09/02 06:03:08;;;;;;;1.98;0.20;;;19.60;55.70;;;;;;5074507;28;20021;-77
2022/09/02 06:05:37;;;;;;;2.17;0.20;;;19.60;55.70;;;;;;5074775;28;20184;-77
2022/09/02 06:08:02;;;;;;;1.23;0.10;;;19.60;55.50;;;;;;5074673;28;20033;-77
2022/09/02 06:10:28;;;;;;;2.95;0.30;;;19.70;55.70;;;;;;5074176;28;20024;-77
2022/09/02 06:12:53;;;;;;;7.15;0.30;;;19.70;55.40;;;;;;5074586;28;20086;-77
2022/09/02 06:15:19;;;;;;;1.80;0.20;;;19.70;55.50;;;;;;5074218;28;20017;-77
2022/09/02 06:17:44;;;;;;;1.15;0.20;;;19.80;55.50;;;;;;5074173;28;20020;-77
2022/09/02 06:20:10;;;;;;;2.20;0.20;;;19.80;55.40;;;;;;5074069;28;20020;-77
2022/09/02 06:22:36;;;;;;;2.72;0.30;;;19.80;55.10;;;;;;5074224;28;20035;-77
2022/09/02 06:25:01;;;;;;;1.23;0.30;;;19.80;55.60;;;;;;5074198;28;20043;-77
2022/09/02 06:27:28;;;;;;;1.38;0.20;;;19.80;55.50;;;;;;5074426;28;20501;-77
2022/09/02 06:29:53;;;;;;;2.80;0.30;;;19.90;55.40;;;;;;5074071;28;20051;-77
2022/09/02 06:32:19;;;;;;;4.90;0.30;;;19.90;55.10;;;;;;5074108;28;20056;-77
2022/09/02 06:34:45;;;;;;;1.58;0.40;;;19.90;55.30;;;;;;5074000;28;20456;-77
2022/09/02 06:37:11;;;;;;;3.05;0.30;;;19.80;55.30;;;;;;5074194;28;20028;-77
2022/09/02 06:39:37;;;;;;;1.10;0.25;;;19.70;55.50;;;;;;5073792;28;20024;-77
2022/09/02 06:42:02;;;;;;;2.60;0.30;;;19.70;55.70;;;;;;5073840;28;20024;-77
2022/09/02 06:44:28;;;;;;;1.88;0.45;;;19.70;56.20;;;;;;5074058;28;20050;-77
2022/09/02 06:46:57;;;;;;;2.00;0.20;;;19.70;55.60;;;;;;5073725;28;20039;-77
2022/09/02 06:49:25;;;;;;;1.60;0.20;;;19.70;56.00;;;;;;5073746;28;20044;-77
2022/09/02 06:51:53;;;;;;;2.50;0.40;;;19.70;56.10;;;;;;5073759;28;20024;-77
2022/09/02 06:54:21;;;;;;;3.45;0.28;;;19.70;55.60;;;;;;5073303;28;20052;-77
2022/09/02 06:56:49;;;;;;;2.30;0.20;;;19.70;56.00;;;;;;5073938;28;20452;-77
2022/09/02 06:59:15;;;;;;;1.92;0.30;;;19.80;56.20;;;;;;5073425;28;20103;-77
2022/09/02 07:01:42;;;;;;;2.30;0.35;;;19.80;55.90;;;;;;5073460;28;20034;-77
2022/09/02 07:06:54;;;;;;;3.35;0.30;;;19.70;56.70;;;;;;5073404;28;20027;-77
2022/09/02 07:09:22;;;;;;;3.05;0.35;;;19.80;56.70;;;;;;5073670;28;20020;-77
2022/09/02 07:11:49;;;;;;;1.38;0.30;;;19.80;56.20;;;;;;5073415;28;20055;-77
2022/09/02 07:14:16;;;;;;;2.17;0.30;;;19.90;56.20;;;;;;5073278;28;20032;-77
2022/09/02 07:16:46;;;;;;;1.40;0.20;;;19.90;56.30;;;;;;5073516;28;20069;-77
2022/09/02 07:19:15;;;;;;;4.32;0.30;;;19.80;56.40;;;;;;5073432;28;20369;-77
2022/09/02 07:21:41;;;;;;;2.05;0.40;;;19.90;56.60;;;;;;5073348;28;20411;-77
2022/09/02 07:24:09;;;;;;;3.78;0.30;;;19.90;56.90;;;;;;5073118;28;20028;-77
2022/09/02 07:26:35;;;;;;;4.28;0.30;;;19.90;57.00;;;;;;5073091;28;20047;-77
2022/09/02 07:29:00;;;;;;;2.40;0.60;;;20.00;56.90;;;;;;5072851;28;20021;-78
2022/09/02 07:31:28;;;;;;;1.15;0.20;;;20.00;56.70;;;;;;5073428;28;20054;-78
2022/09/02 07:33:57;;;;;;;3.20;0.60;;;20.10;56.80;;;;;;5072815;28;20383;-78
2022/09/02 07:36:24;;;;;;;3.50;0.40;;;20.20;56.60;;;;;;5072757;28;20468;-78
2022/09/02 07:38:51;;;;;;;2.17;0.30;;;20.20;56.50;;;;;;5073248;28;20111;-78
2022/09/02 07:41:18;;;;;;;2.67;0.40;;;20.20;56.50;;;;;;5073248;28;20145;-77
2022/09/02 07:43:43;;;;;;;3.17;0.40;;;20.40;56.90;;;;;;5072935;28;20031;-77
2022/09/02 07:46:09;;;;;;;2.90;0.50;;;20.50;57.60;;;;;;5072990;28;20049;-77
2022/09/02 07:48:35;;;;;;;2.83;0.40;;;20.60;57.00;;;;;;5073183;28;20064;-77
2022/09/02 07:51:01;;;;;;;5.60;0.40;;;20.80;56.50;;;;;;5072807;28;20021;-77
2022/09/02 07:53:27;;;;;;;3.53;0.40;;;20.90;56.40;;;;;;5072885;28;20033;-78
2022/09/02 07:55:53;;;;;;;5.65;0.30;;;20.90;56.10;;;;;;5073229;28;20097;-78
2022/09/02 07:58:21;;;;;;;3.55;0.30;;;21.00;55.80;;;;;;5073202;28;20142;-77
2022/09/02 08:00:47;;;;;;;3.92;0.40;;;21.00;56.20;;;;;;5072930;28;20025;-78
2022/09/02 08:03:13;;;;;;;4.45;0.60;;;21.00;55.90;;;;;;5073228;28;20028;-78
2022/09/02 08:05:40;;;;;;;2.10;0.47;;;21.10;56.20;;;;;;5072777;28;20384;-78
2022/09/02 08:08:07;;;;;;;5.72;0.30;;;21.20;55.70;;;;;;5073008;28;20098;-78
2022/09/02 08:10:34;;;;;;;5.10;0.50;;;21.30;55.50;;;;;;5073036;28;20029;-78
2022/09/02 08:13:00;;;;;;;2.28;0.40;;;21.40;55.50;;;;;;5072707;28;20399;-78
2022/09/02 08:15:27;;;;;;;5.18;0.52;;;21.50;56.00;;;;;;5072782;28;20096;-78
2022/09/02 08:17:55;;;;;;;4.93;0.57;;;21.70;55.60;;;;;;5072899;28;20020;-78
2022/09/02 08:20:21;;;;;;;1.88;0.40;;;21.80;55.50;;;;;;5072296;28;20028;-78
2022/09/02 08:22:47;;;;;;;5.13;0.40;;;21.90;55.40;;;;;;5072991;28;20036;-78
2022/09/02 08:25:12;;;;;;;4.60;0.95;;;21.90;55.00;;;;;;5072646;28;20048;-78
2022/09/02 08:27:38;;;;;;;7.00;0.73;;;21.90;54.80;;;;;;5072853;28;20060;-78
2022/09/02 08:30:09;;;;;;;2.15;0.60;;;22.00;54.40;;;;;;5072695;28;20104;-78
2022/09/02 08:32:36;;;;;;;1.83;0.40;;;22.20;53.90;;;;;;5073030;28;20032;-78
2022/09/02 08:35:03;;;;;;;3.45;0.50;;;22.20;54.20;;;;;;5072834;28;20103;-78
2022/09/02 08:37:31;;;;;;;3.67;0.40;;;22.30;54.40;;;;;;5072641;28;20052;-78
2022/09/02 08:39:57;;;;;;;5.43;0.40;;;22.40;53.60;;;;;;5072804;28;20110;-78
2022/09/02 08:42:31;;;;;;;5.18;0.60;;;22.50;53.20;;;;;;5072445;28;20395;-78
2022/09/02 08:45:05;;;;;;;3.40;0.30;;;22.50;54.00;;;;;;5072334;28;20024;-78
2022/09/02 08:47:34;;;;;;;8.35;0.75;;;22.60;53.60;;;;;;5075798;28;20096;-78
2022/09/02 08:50:04;;;;;;;3.28;0.50;;;22.70;53.40;;;;;;5075820;28;20031;-78
2022/09/02 08:52:32;;;;;;;4.85;0.45;;;22.70;53.30;;;;;;5076068;28;20103;-78
2022/09/02 08:54:59;;;;;;;5.65;0.40;;;22.70;53.50;;;;;;5075979;28;20032;-78
2022/09/02 08:57:26;;;;;;;2.55;0.55;;;22.90;53.50;;;;;;5075896;28;20104;-78
2022/09/02 08:59:57;;;;;;;4.18;0.90;;;23.00;53.70;;;;;;5075740;28;20035;-78
2022/09/02 09:02:29;;;;;;;4.07;0.47;;;23.10;53.20;;;;;;5076078;28;20059;-78
2022/09/02 09:05:16;;;;;;;2.45;0.50;;;23.20;53.10;;;;;;5075756;28;20056;-78
2022/09/02 09:07:56;;;;;;;4.57;0.75;;;23.20;53.40;;;;;;5075613;28;20041;-77
2022/09/02 09:10:33;;;;;;;5.45;0.63;;;23.30;53.20;;;;;;5075674;28;20104;-79
2022/09/02 09:13:07;;;;;;;4.60;0.60;;;23.30;52.90;;;;;;5075876;28;20082;-78
2022/09/02 09:15:51;;;;;;;6.90;0.85;;;23.40;53.50;;;;;;5075898;28;20021;-78
2022/09/02 09:18:24;;;;;;;5.00;0.60;;;23.30;53.20;;;;;;5075597;28;20028;-78
2022/09/02 09:20:49;;;;;;;7.75;0.65;;;23.40;54.50;;;;;;5075353;28;20170;-78
2022/09/02 09:23:32;;;;;;;6.32;0.75;;;23.50;53.20;;;;;;5075299;28;20104;-78
2022/09/02 09:26:15;;;;;;;3.85;0.73;;;23.60;52.90;;;;;;5075060;28;20106;-78
2022/09/02 09:28:46;;;;;;;8.10;0.95;;;23.60;52.30;;;;;;5075122;28;20040;-78
2022/09/02 09:31:28;;;;;;;5.18;0.50;;;23.70;52.40;;;;;;5075238;28;20044;-78
2022/09/02 09:34:10;;;;;;;4.78;0.98;;;23.70;52.20;;;;;;5075310;28;20024;-78
2022/09/02 09:36:38;;;;;;;1.15;0.60;;;23.80;52.20;;;;;;5075576;28;20036;-78
2022/09/02 09:39:37;;;;;;;3.88;0.70;;;23.90;52.20;;;;;;5074935;28;20027;-78
2022/09/02 09:42:12;;;;;;;3.22;1.15;;;23.90;52.40;;;;;;5074734;28;20028;-78
2022/09/02 09:44:48;;;;;;;3.67;0.50;;;24.00;52.10;;;;;;5074987;28;20484;-78
2022/09/02 09:47:18;;;;;;;5.00;0.70;;;24.10;52.10;;;;;;5074833;28;20028;-78
2022/09/02 09:50:04;;;;;;;5.03;0.90;;;24.10;52.50;;;;;;5075024;28;20032;-78
2022/09/02 09:52:30;;;;;;;8.13;0.55;;;24.20;52.50;;;;;;5074403;28;20046;-78
2022/09/02 09:55:23;;;;;;;4.35;0.82;;;24.30;52.60;;;;;;5074748;28;20020;-79
2022/09/02 09:57:49;;;;;;;3.40;0.73;;;24.60;51.50;;;;;;5072790;28;20051;-79
2022/09/02 10:00:24;;;;;;;2.13;0.82;;;24.70;51.80;;;;;;5074617;28;20150;-79
2022/09/02 10:02:53;;;;;;;6.53;0.60;;;24.80;51.60;;;;;;5074767;28;20060;-79
2022/09/02 10:05:29;;;;;;;7.65;0.88;;;24.80;51.10;;;;;;5074430;28;20400;-79
2022/09/02 10:08:01;;;;;;;4.63;1.13;;;24.80;51.70;;;;;;5074466;28;20033;-79
2022/09/02 10:10:28;;;;;;;;;;;24.90;51.20;;;;;;5074873;28;20036;-79
2022/09/02 10:12:57;;;;;;;4.50;0.80;;;25.00;52.20;;;;;;5074012;28;19904;-79
2022/09/02 10:15:37;;;;;;;9.38;0.70;;;25.20;51.10;;;;;;5074226;28;20472;-79
2022/09/02 10:18:12;;;;;;;7.30;0.77;;;25.20;52.00;;;;;;5074416;28;20036;-79
2022/09/02 10:20:49;;;;;;;1.15;0.50;;;25.30;51.70;;;;;;5074206;28;20029;-79
2022/09/02 10:23:42;;;;;;;2.67;0.80;;;25.30;51.30;;;;;;5074197;28;20381;-79
2022/09/02 10:26:40;;;;;;;3.60;0.90;;;25.30;50.50;;;;;;5073757;28;20072;-80
2022/09/02 10:29:05;;;;;;;3.03;0.80;;;25.40;49.90;;;;;;5074432;28;20115;-79
2022/09/02 10:31:49;;;;;;;1.70;0.50;;;25.50;50.50;;;;;;5074152;28;20158;-81
2022/09/02 10:34:49;;;;;;;4.30;0.50;;;25.50;50.40;;;;;;5073931;28;20025;-79
2022/09/02 10:37:22;;;;;;;4.20;0.40;;;25.60;51.60;;;;;;5073580;28;20024;-79
2022/09/02 10:39:48;;;;;;;2.65;0.65;;;25.70;51.80;;;;;;5073618;28;20029;-79
2022/09/02 10:42:30;;;;;;;3.72;0.80;;;25.80;50.10;;;;;;5073835;28;20034;-79
2022/09/02 10:45:02;;;;;;;8.60;0.63;;;25.90;50.10;;;;;;5074090;28;20036;-79
2022/09/02 10:47:36;;;;;;;2.80;0.85;;;26.00;50.40;;;;;;5073801;28;20423;-80
2022/09/02 10:50:32;;;;;;;4.82;0.70;;;26.00;50.30;;;;;;5074018;28;20017;-79
2022/09/02 10:53:24;;;;;;;3.00;0.60;;;26.10;50.30;;;;;;5073763;28;20069;-79
2022/09/02 10:55:59;;;;;;;8.73;1.00;;;26.20;50.90;;;;;;5073861;28;20108;-80
2022/09/02 10:58:59;;;;;;;5.88;0.90;;;26.30;49.60;;;;;;5073591;28;20036;-79
2022/09/02 11:01:34;;;;;;;3.63;0.50;;;26.30;49.50;;;;;;5073606;28;20032;-80
2022/09/02 11:04:03;;;;;;;5.30;0.65;;;26.40;50.50;;;;;;5073507;28;20027;-80
2022/09/02 11:06:31;;;;;;;6.15;0.75;;;26.60;49.80;;;;;;5073061;28;20451;-80
2022/09/02 11:08:59;;;;;;;2.72;0.60;;;26.80;49.60;;;;;;5072676;28;20029;-80
2022/09/02 11:11:39;;;;;;;2.67;0.82;;;27.00;49.30;;;;;;5073392;28;20422;-80
2022/09/02 11:14:21;;;;;;;5.28;0.70;;;27.00;48.50;;;;;;5073520;28;20024;-80
2022/09/02 11:16:56;;;;;;;5.10;0.75;;;27.10;49.00;;;;;;5073349;28;20540;-80
2022/09/02 11:19:50;;;;;;;3.42;0.65;;;27.10;49.00;;;;;;5073099;28;20468;-79
2022/09/02 11:22:34;;;;;;;3.17;0.70;;;27.20;49.20;;;;;;5073150;28;20547;-81
2022/09/02 11:25:16;;;;;;;4.03;0.65;;;27.20;48.50;;;;;;5073304;28;20044;-81
2022/09/02 11:28:02;;;;;;;1.60;0.68;;;27.30;48.70;;;;;;5073323;28;20079;-81
2022/09/02 11:30:42;;;;;;;3.72;0.68;;;27.50;48.30;;;;;;5073539;28;20032;-81
2022/09/02 11:33:20;;;;;;;3.20;0.47;;;27.60;47.30;;;;;;5073366;28;20078;-81
2022/09/02 11:35:45;;;;;;;2.60;0.50;;;27.70;46.10;;;;;;5072957;28;20032;-81
2022/09/02 11:38:13;;;;;;;2.42;0.73;;;27.80;45.80;;;;;;5072962;28;20025;-81
2022/09/02 11:41:06;;;;;;;1.48;0.60;;;27.80;44.70;;;;;;5073438;28;20024;-81
2022/09/02 11:43:52;;;;;;;1.27;0.50;;;27.60;44.10;;;;;;5073321;28;20070;-83
2022/09/02 11:46:45;;;;;;;1.83;0.45;;;27.30;45.20;;;;;;5073339;28;20025;-81
2022/09/02 11:49:29;;;;;;;;;;;27.10;43.60;;;;;;5073067;28;20025;-81
2022/09/02 11:52:19;;;;;;;5.93;0.30;;;27.00;42.70;;;;;;5073322;28;19905;-81
2022/09/02 11:54:47;;;;;;;1.35;0.30;;;27.10;43.20;;;;;;5073176;28;20107;-81
2022/09/02 11:57:20;;;;;;;3.72;0.80;;;27.30;44.80;;;;;;5072663;28;20033;-81
2022/09/02 11:59:49;;;;;;;4.15;0.65;;;27.50;44.70;;;;;;5073089;28;20029;-81
2022/09/02 12:02:45;;;;;;;2.25;0.55;;;27.60;44.50;;;;;;5073181;28;20027;-80
2022/09/02 12:05:29;;;;;;;2.10;0.65;;;27.60;43.90;;;;;;5072741;28;20427;-80
2022/09/02 12:08:05;;;;;;;2.22;0.40;;;27.50;44.30;;;;;;5073072;28;20029;-80
2022/09/02 12:10:44;;;;;;;1.17;0.50;;;27.50;44.30;;;;;;5072844;28;20044;-80
2022/09/02 12:13:37;;;;;;;5.30;0.60;;;27.70;44.50;;;;;;5073017;28;20021;-80
2022/09/02 12:16:11;;;;;;;2.88;0.70;;;27.80;44.70;;;;;;5073168;28;20423;-80
2022/09/02 12:18:41;;;;;;;3.58;0.60;;;27.90;45.30;;;;;;5073107;28;20031;-80
2022/09/02 12:21:10;;;;;;;2.55;0.60;;;28.10;44.10;;;;;;5075945;28;20082;-80
2022/09/02 12:23:47;;;;;;;6.72;0.63;;;28.10;45.00;;;;;;5076406;28;20480;-80
2022/09/02 12:26:14;;;;;;;3.10;0.40;;;28.20;43.20;;;;;;5076043;28;20040;-80
2022/09/02 12:28:43;;;;;;;3.13;0.50;;;28.40;43.70;;;;;;5076604;28;20131;-80
2022/09/02 12:31:29;;;;;;;3.88;0.57;;;28.40;42.20;;;;;;5076574;28;20054;-80
2022/09/02 12:33:54;;;;;;;3.10;0.47;;;28.50;42.60;;;;;;5076753;28;20064;-80
2022/09/02 12:36:35;;;;;;;5.20;0.60;;;28.50;42.20;;;;;;5076129;28;20110;-81
2022/09/02 12:39:22;;;;;;;2.80;0.40;;;28.50;42.60;;;;;;5076315;28;20028;-80
2022/09/02 12:42:00;;;;;;;2.80;0.45;;;28.50;43.90;;;;;;5076266;28;20032;-81
2022/09/02 12:44:41;;;;;;;2.30;0.50;;;28.60;43.10;;;;;;5076524;28;20044;-81
2022/09/02 12:47:25;;;;;;;2.55;0.52;;;28.70;43.00;;;;;;5076144;28;20032;-82
2022/09/02 12:50:06;;;;;;;2.45;0.60;;;28.80;41.80;;;;;;5076237;28;20039;-80
2022/09/02 12:52:38;;;;;;;3.13;0.50;;;28.90;41.80;;;;;;5076440;28;20059;-81
2022/09/02 12:55:24;;;;;;;1.23;0.28;;;28.70;42.10;;;;;;5075961;28;20016;-81
2022/09/02 12:57:53;;;;;;;2.80;0.45;;;28.60;42.50;;;;;;5075977;28;20030;-81
2022/09/02 13:00:30;;;;;;;2.88;0.40;;;28.80;42.00;;;;;;5075928;28;20055;-81
2022/09/02 13:02:55;;;;;;;2.35;0.40;;;29.00;42.10;;;;;;5075949;28;20025;-81
2022/09/02 13:05:46;;;;;;;3.35;0.40;;;29.20;42.10;;;;;;5075641;28;20070;-81
2022/09/02 13:08:44;;;;;;;5.18;0.52;;;29.40;41.50;;;;;;5053872;28;20070;-82
2022/09/02 13:11:56;;;;;;;3.28;0.40;;;29.50;41.30;;;;;;5075774;28;20021;-81